Time;durP1;ratioP1;P1;durP2;ratioP2;P2;SDS_P1;SDS_P2;PMS_P1;PMS_P2;Temp;Humidity;BMP_temperature;BMP_pressure;BME280_temperature;BME280_humidity;BME280_pressure;Samples;Min_cycle;Max_cycle;Signal;HPM_P1;HPM_P2
2023/10/18 00:01:05;;;;;;;;;;;;;;;13.58;100.00;99702.53;5022947;28;20030;-78
2023/10/18 00:03:31;;;;;;;;;;;;;;;13.56;100.00;99707.16;5027449;28;20381;-79
2023/10/18 00:05:57;;;;;;;;;;;;;;;13.58;100.00;99703.38;5023486;28;19996;-77
2023/10/18 00:08:23;;;;;;;;;;;;;;;13.59;100.00;99702.38;5024802;28;19921;-78
2023/10/18 00:10:53;;;;;;;;;;;;;;;13.62;100.00;99698.56;5027697;28;19925;-78
2023/10/18 00:13:24;;;;;;;;;;;;;;;13.60;100.00;99700.56;5025181;28;20323;-79
2023/10/18 00:15:53;;;;;;;;;;;;;;;13.55;100.00;99698.38;5024855;28;19961;-77
2023/10/18 00:18:19;;;;;;;;;;;;;;;13.49;100.00;99694.53;5024915;28;19925;-79
2023/10/18 00:20:45;;;;;;;;;;;;;;;13.50;100.00;99696.19;5027054;28;19977;-78
2023/10/18 00:23:10;;;;;;;;;;;;;;;13.49;100.00;99699.81;5025818;28;19922;-79
2023/10/18 00:25:36;;;;;;;;;;;;;;;13.46;100.00;99694.84;5028749;28;19933;-79
2023/10/18 00:28:03;;;;;;;;;;;;;;;13.49;100.00;99689.22;5026534;28;19975;-77
2023/10/18 00:30:30;;;;;;;;;;;;;;;13.47;100.00;99693.88;5009145;28;20261;-78
2023/10/18 00:32:56;;;;;;;;;;;;;;;13.45;100.00;99695.84;5025301;28;19921;-78
2023/10/18 00:35:23;;;;;;;;;;;;;;;13.43;100.00;99694.34;5010164;28;20448;-79
2023/10/18 00:37:55;;;;;;;;;;;;;;;13.44;100.00;99701.28;5027343;28;20277;-79
2023/10/18 00:40:33;;;;;;;;;;;;;;;13.46;100.00;99697.50;5025409;28;19983;-78
2023/10/18 00:45:47;;;;;;;;;;;;;;;13.48;100.00;99715.91;5012101;28;19921;-77
2023/10/18 00:48:14;;;;;;;;;;;;;;;13.53;100.00;99708.31;5023646;28;19921;-77
2023/10/18 00:50:45;;;;;;;;;;;;;;;13.55;100.00;99703.66;5011727;28;19968;-77
2023/10/18 00:53:11;;;;;;;;;;;;;;;13.55;100.00;99706.31;5025470;28;19921;-78
2023/10/18 00:55:37;;;;;;;;;;;;;;;13.51;100.00;99689.91;5009231;28;19929;-78
2023/10/18 00:58:08;;;;;;;;;;;;;;;13.52;100.00;99690.75;5023625;28;19929;-78
2023/10/18 01:00:35;;;;;;;;;;;;;;;13.52;100.00;99691.56;5026996;28;20662;-78
2023/10/18 01:03:06;;;;;;;;;;;;;;;13.52;100.00;99682.78;5010834;28;20015;-78
2023/10/18 01:05:32;;;;;;;;;;;;;;;13.53;100.00;99669.38;5023861;28;20394;-78
2023/10/18 01:07:59;;;;;;;;;;;;;;;13.55;100.00;99666.56;5029128;28;19960;-78
2023/10/18 01:10:24;;;;;;;;;;;;;;;13.57;100.00;99663.75;5027759;28;20024;-77
2023/10/18 01:12:52;;;;;;;;;;;;;;;13.56;100.00;99659.44;5031120;28;19963;-78
2023/10/18 01:15:19;;;;;;;;;;;;;;;13.53;100.00;99664.09;5027118;28;20032;-78
2023/10/18 01:17:45;;;;;;;;;;;;;;;13.48;100.00;99661.06;5029401;28;19921;-78
2023/10/18 01:20:53;;;;;;;;;;;;;;;13.44;100.00;99665.00;5026514;28;19922;-77
2023/10/18 01:22:59;;;;;;;;;;;;;;;13.44;100.00;99659.72;5016808;28;20292;-77
2023/10/18 01:25:24;;;;;;;;;;;;;;;13.43;100.00;99652.75;5025662;28;20016;-77
2023/10/18 01:27:51;;;;;;;;;;;;;;;13.41;100.00;99649.44;5028096;28;20431;-77
2023/10/18 01:30:19;;;;;;;;;;;;;;;13.39;100.00;99651.41;5025764;28;20007;-77
2023/10/18 01:32:45;;;;;;;;;;;;;;;13.42;100.00;99645.81;5025198;28;20332;-78
2023/10/18 01:35:13;;;;;;;;;;;;;;;13.43;100.00;99646.63;5012979;28;19922;-78
2023/10/18 01:37:39;;;;;;;;;;;;;;;13.41;100.00;99641.50;5026657;28;19925;-78
2023/10/18 01:42:58;;;;;;;;;;;;;;;13.40;100.00;99642.47;5024934;28;20006;-78
2023/10/18 01:45:28;;;;;;;;;;;;;;;13.39;100.00;99638.16;5029029;28;19928;-79
2023/10/18 01:47:54;;;;;;;;;;;;;;;13.38;100.00;99640.97;5006041;28;20016;-78
2023/10/18 01:50:21;;;;;;;;;;;;;;;13.36;100.00;99635.84;5026037;28;19921;-78
2023/10/18 01:52:47;;;;;;;;;;;;;;;13.34;100.00;99621.91;5009104;28;20269;-76
2023/10/18 01:55:12;;;;;;;;;;;;;;;13.36;100.00;99622.59;5026049;28;19963;-76
2023/10/18 01:57:43;;;;;;;;;;;;;;;13.36;100.00;99624.41;5026336;28;19969;-78
2023/10/18 02:00:18;;;;;;;;;;;;;;;13.31;100.00;99630.16;5016251;28;19921;-77
2023/10/18 02:02:46;;;;;;;;;;;;;;;13.34;100.00;99621.91;5017191;28;20007;-77
2023/10/18 02:05:18;;;;;;;;;;;;;;;13.31;100.00;99606.31;5009649;28;20600;-78
2023/10/18 02:07:47;;;;;;;;;;;;;;;13.32;100.00;99612.44;5025060;28;20035;-77
2023/10/18 02:10:20;;;;;;;;;;;;;;;13.32;100.00;99607.97;5003500;28;20287;-76
2023/10/18 02:12:46;;;;;;;;;;;;;;;13.33;100.00;99604.34;5004903;28;19922;-77
2023/10/18 02:15:11;;;;;;;;;;;;;;;13.35;100.00;99607.66;4989403;28;20452;-76
2023/10/18 02:17:39;;;;;;;;;;;;;;;13.32;100.00;99602.66;5008288;28;20310;-77
2023/10/18 02:20:13;;;;;;;;;;;;;;;13.35;100.00;99594.41;5006650;28;20255;-77
2023/10/18 02:22:38;;;;;;;;;;;;;;;13.39;100.00;99597.56;4993977;28;19929;-77
2023/10/18 02:25:08;;;;;;;;;;;;;;;13.41;100.00;99598.25;4988974;28;19926;-78
2023/10/18 02:27:36;;;;;;;;;;;;;;;13.39;100.00;99603.69;5007677;28;19947;-79
2023/10/18 02:30:02;;;;;;;;;;;;;;;13.38;100.00;99594.09;5004264;28;19960;-79
2023/10/18 02:32:32;;;;;;;;;;;;;;;13.36;100.00;99588.13;5002815;28;19928;-78
2023/10/18 02:34:58;;;;;;;;;;;;;;;13.36;100.00;99593.44;4990457;28;19929;-77
2023/10/18 02:37:25;;;;;;;;;;;;;;;13.34;100.00;99592.75;5006028;28;19921;-78
2023/10/18 02:39:51;;;;;;;;;;;;;;;13.35;100.00;99594.41;5004597;28;19965;-78
2023/10/18 02:42:18;;;;;;;;;;;;;;;13.31;100.00;99593.06;5007500;28;20437;-78
2023/10/18 02:44:44;;;;;;;;;;;;;;;13.31;100.00;99598.34;5004046;28;19997;-78
2023/10/18 02:47:16;;;;;;;;;;;;;;;13.32;100.00;99601.84;5007886;28;19917;-78
2023/10/18 02:49:45;;;;;;;;;;;;;;;13.19;100.00;99602.31;5003440;28;19975;-78
2023/10/18 02:52:11;;;;;;;;;;;;;;;13.14;100.00;99604.56;5004999;28;20250;-77
2023/10/18 02:54:36;;;;;;;;;;;;;;;13.07;100.00;99614.13;5007120;28;19934;-77
2023/10/18 02:57:05;;;;;;;;;;;;;;;13.01;100.00;99607.63;4993122;28;19925;-78
2023/10/18 02:59:31;;;;;;;;;;;;;;;12.92;100.00;99607.72;5008226;28;20292;-77
2023/10/18 03:01:57;;;;;;;;;;;;;;;12.92;100.00;99605.91;5000806;28;20341;-78
2023/10/18 03:04:23;;;;;;;;;;;;;;;12.87;100.00;99612.66;5005604;28;19921;-77
2023/10/18 03:06:52;;;;;;;;;;;;;;;12.81;100.00;99613.28;5002337;28;19933;-77
2023/10/18 03:11:59;;;;;;;;;;;;;;;12.75;100.00;99609.44;5023273;28;20340;-77
2023/10/18 03:14:41;;;;;;;;;;;;;;;12.82;100.00;99614.94;5009349;28;20011;-78
2023/10/18 03:19:50;;;;;;;;;;;;;;;12.92;100.00;99605.06;5019752;28;20059;-78
2023/10/18 03:22:22;;;;;;;;;;;;;;;13.01;100.00;99605.00;5026364;28;20002;-78
2023/10/18 03:24:48;;;;;;;;;;;;;;;13.00;100.00;99602.50;5020687;28;20028;-78
2023/10/18 03:27:14;;;;;;;;;;;;;;;13.02;100.00;99605.78;5025584;28;19921;-76
2023/10/18 03:29:43;;;;;;;;;;;;;;;13.03;100.00;99600.34;5024129;28;19921;-77
2023/10/18 03:32:08;;;;;;;;;;;;;;;13.03;100.00;99602.16;5026710;28;20388;-78
2023/10/18 03:34:37;;;;;;;;;;;;;;;13.00;100.00;99599.84;5024322;28;20012;-78
2023/10/18 03:37:06;;;;;;;;;;;;;;;13.00;100.00;99591.91;5007155;28;20293;-78
2023/10/18 03:39:32;;;;;;;;;;;;;;;12.85;100.00;99598.75;5022645;28;19991;-77
2023/10/18 03:42:01;;;;;;;;;;;;;;;12.81;100.00;99592.94;5025315;28;19957;-78
2023/10/18 03:44:27;;;;;;;;;;;;;;;12.83;100.00;99596.28;5023049;28;19984;-78
2023/10/18 03:47:04;;;;;;;;;;;;;;;12.75;100.00;99605.97;5010985;28;19929;-78
2023/10/18 03:49:39;;;;;;;;;;;;;;;12.72;100.00;99597.34;5026589;28;20243;-78
2023/10/18 03:54:47;;;;;;;;;;;;;;;12.73;100.00;99606.94;5007046;28;19936;-77
2023/10/18 03:57:19;;;;;;;;;;;;;;;12.78;100.00;99608.31;5020192;28;19944;-78
2023/10/18 03:59:45;;;;;;;;;;;;;;;12.85;100.00;99604.03;5024315;28;20007;-78
2023/10/18 04:02:27;;;;;;;;;;;;;;;12.88;100.00;99603.75;5023680;28;19965;-79
2023/10/18 04:04:58;;;;;;;;;;;;;;;12.90;100.00;99601.78;5024036;28;19925;-78
2023/10/18 04:07:32;;;;;;;;;;;;;;;12.94;100.00;99595.16;5023012;28;19967;-78
2023/10/18 04:12:27;;;;;;;;;;;;;;;13.03;100.00;99591.56;5023517;28;19967;-79
2023/10/18 04:14:55;;;;;;;;;;;;;;;12.99;100.00;99593.72;5024735;28;19947;-79
2023/10/18 04:17:42;;;;;;;;;;;;;;;12.94;100.00;99592.53;5023537;28;19948;-78
2023/10/18 04:22:38;;;;;;;;;;;;;;;12.88;100.00;99595.78;5031432;28;20228;-78
2023/10/18 04:25:17;;;;;;;;;;;;;;;12.83;100.00;99600.72;5020948;28;19933;-79
2023/10/18 04:27:44;;;;;;;;;;;;;;;12.79;100.00;99594.06;5025716;28;20020;-79
2023/10/18 04:30:13;;;;;;;;;;;;;;;12.80;100.00;99591.28;5021284;28;19944;-79
2023/10/18 04:32:38;;;;;;;;;;;;;;;12.87;100.00;99596.78;5024731;28;20004;-78
2023/10/18 04:35:09;;;;;;;;;;;;;;;12.85;100.00;99588.16;5010327;28;20013;-77
2023/10/18 04:37:35;;;;;;;;;;;;;;;12.82;100.00;99591.13;5027219;28;19921;-74
2023/10/18 04:40:03;;;;;;;;;;;;;;;12.84;100.00;99581.22;5009968;28;19956;-76
2023/10/18 04:42:28;;;;;;;;;;;;;;;12.79;100.00;99575.53;5014341;28;20015;-76
2023/10/18 04:44:56;;;;;;;;;;;;;;;12.79;100.00;99578.19;5026268;28;20007;-75
2023/10/18 04:47:31;;;;;;;;;;;;;;;12.70;100.00;99574.66;5029781;28;19929;-75
2023/10/18 04:50:04;;;;;;;;;;;;;;;12.67;100.00;99575.78;5024138;28;20082;-77
2023/10/18 04:52:40;;;;;;;;;;;;;;;12.66;100.00;99574.13;5025717;28;19928;-74
2023/10/18 04:55:11;;;;;;;;;;;;;;;12.61;100.00;99560.53;5026028;28;19928;-76
2023/10/18 04:57:38;;;;;;;;;;;;;;;12.66;100.00;99562.72;5022079;28;19925;-75
2023/10/18 05:00:11;;;;;;;;;;;;;;;12.65;100.00;99569.84;5023680;28;19917;-74
2023/10/18 05:02:38;;;;;;;;;;;;;;;12.64;100.00;99565.53;5025477;28;20081;-74
2023/10/18 05:05:10;;;;;;;;;;;;;;;12.68;100.00;99566.88;5026331;28;19929;-75
2023/10/18 05:07:41;;;;;;;;;;;;;;;12.58;100.00;99563.50;5029124;28;19961;-75
2023/10/18 05:10:16;;;;;;;;;;;;;;;12.60;100.00;99569.47;5010087;28;19929;-77
2023/10/18 05:15:32;;;;;;;;;;;;;;;12.67;100.00;99565.19;4986004;28;19920;-77
2023/10/18 05:18:04;;;;;;;;;;;;;;;12.69;100.00;99565.06;5026025;28;19925;-76
2023/10/18 05:20:42;;;;;;;;;;;;;;;12.70;100.00;99572.84;5025946;28;19921;-75
2023/10/18 05:23:07;;;;;;;;;;;;;;;12.72;100.00;99572.69;5024133;28;19936;-74
2023/10/18 05:25:45;;;;;;;;;;;;;;;12.76;100.00;99567.91;5021050;28;19925;-78
2023/10/18 05:28:24;;;;;;;;;;;;;;;12.80;100.00;99570.09;5022504;28;19929;-74
2023/10/18 05:36:54;;;;;;;;;;;;;;;12.76;100.00;99571.38;5026968;28;20429;-74
2023/10/18 05:38:52;;;;;;;;;;;;;;;12.75;100.00;99563.59;5019521;28;19959;-74
2023/10/18 05:43:46;;;;;;;;;;;;;;;12.84;100.00;99570.63;5024235;28;20012;-77
2023/10/18 05:46:12;;;;;;;;;;;;;;;12.84;100.00;99574.06;5008244;28;20015;-72
2023/10/18 05:48:46;;;;;;;;;;;;;;;12.86;100.00;99585.34;5001911;28;19929;-75
2023/10/18 05:53:50;;;;;;;;;;;;;;;12.73;100.00;99591.06;5023956;28;19921;-74
2023/10/18 05:56:20;;;;;;;;;;;;;;;12.80;100.00;99587.78;5027031;28;19967;-75
2023/10/18 05:58:46;;;;;;;;;;;;;;;12.85;100.00;99598.75;5007747;28;19993;-74
2023/10/18 06:01:13;;;;;;;;;;;;;;;12.90;100.00;99596.47;5025968;28;19984;-73
2023/10/18 06:03:39;;;;;;;;;;;;;;;12.94;100.00;99593.34;5025698;28;20389;-75
2023/10/18 06:06:07;;;;;;;;;;;;;;;12.98;100.00;99599.16;5002458;28;19961;-75
2023/10/18 06:08:33;;;;;;;;;;;;;;;13.01;100.00;99599.69;5025717;28;20159;-75
2023/10/18 06:11:06;;;;;;;;;;;;;;;13.01;100.00;99604.16;5023934;28;19929;-74
2023/10/18 06:13:40;;;;;;;;;;;;;;;12.98;100.00;99604.44;5009812;28;19928;-74
2023/10/18 06:16:19;;;;;;;;;;;;;;;13.02;100.00;99597.84;5025122;28;19929;-74
2023/10/18 06:18:46;;;;;;;;;;;;;;;13.04;100.00;99615.25;5025471;28;19925;-74
2023/10/18 06:21:21;;;;;;;;;;;;;;;13.07;100.00;99606.19;5020166;28;19987;-74
2023/10/18 06:23:56;;;;;;;;;;;;;;;13.10;100.00;99608.50;5022116;28;20779;-72
2023/10/18 06:26:28;;;;;;;;;;;;;;;13.11;100.00;99620.75;5022856;28;19926;-71
2023/10/18 06:29:01;;;;;;;;;;;;;;;13.11;100.00;99620.75;5010391;28;20297;-73
2023/10/18 06:31:28;;;;;;;;;;;;;;;13.16;100.00;99613.19;5027932;28;19921;-74
2023/10/18 06:33:59;;;;;;;;;;;;;;;13.17;100.00;99622.81;5007157;28;20297;-73
2023/10/18 06:36:25;;;;;;;;;;;;;;;13.18;100.00;99621.84;5022576;28;20378;-74
2023/10/18 06:38:51;;;;;;;;;;;;;;;13.20;100.00;99630.44;5026196;28;19925;-74
2023/10/18 06:41:23;;;;;;;;;;;;;;;13.22;100.00;99623.16;5023320;28;20048;-77
2023/10/18 06:43:49;;;;;;;;;;;;;;;13.25;100.00;99624.69;5026991;28;19928;-74
2023/10/18 06:46:26;;;;;;;;;;;;;;;13.24;100.00;99626.50;5023563;28;19921;-75
2023/10/18 06:48:54;;;;;;;;;;;;;;;13.23;100.00;99624.84;5022395;28;19921;-75
2023/10/18 06:51:30;;;;;;;;;;;;;;;13.24;100.00;99623.84;5023347;28;20430;-76
2023/10/18 06:53:58;;;;;;;;;;;;;;;13.25;100.00;99638.78;5024900;28;20005;-75
2023/10/18 06:56:25;;;;;;;;;;;;;;;13.25;100.00;99635.28;5022162;28;19921;-75
2023/10/18 06:58:51;;;;;;;;;;;;;;;13.25;100.00;99638.78;5024084;28;19960;-74
2023/10/18 07:01:20;;;;;;;;;;;;;;;13.23;100.00;99640.72;5020871;28;19925;-76
2023/10/18 07:03:48;;;;;;;;;;;;;;;13.25;100.00;99638.78;5020346;28;20396;-75
2023/10/18 07:06:18;;;;;;;;;;;;;;;13.29;100.00;99633.97;5000983;28;20070;-75
2023/10/18 07:08:45;;;;;;;;;;;;;;;13.30;100.00;99640.94;5022376;28;19921;-75
2023/10/18 07:11:16;;;;;;;;;;;;;;;13.32;100.00;99654.84;5022522;28;19933;-74
2023/10/18 07:13:46;;;;;;;;;;;;;;;13.32;100.00;99639.78;5026748;28;19921;-75
2023/10/18 07:16:13;;;;;;;;;;;;;;;13.34;100.00;99648.41;5022771;28;19929;-75
2023/10/18 07:18:38;;;;;;;;;;;;;;;13.36;100.00;99641.13;5026080;28;19935;-75
2023/10/18 07:21:07;;;;;;;;;;;;;;;13.38;100.00;99644.44;5020272;28;19920;-75
2023/10/18 07:23:37;;;;;;;;;;;;;;;13.40;100.00;99642.47;5025390;28;20385;-75
2023/10/18 07:26:03;;;;;;;;;;;;;;;13.41;100.00;99654.75;5022637;28;20008;-76
2023/10/18 07:28:29;;;;;;;;;;;;;;;13.43;100.00;99644.78;5022343;28;19976;-81
2023/10/18 07:30:55;;;;;;;;;;;;;;;13.43;100.00;99647.44;5008857;28;20401;-79
2023/10/18 07:33:23;;;;;;;;;;;;;;;13.50;100.00;99653.78;5022278;28;19978;-79
2023/10/18 07:35:49;;;;;;;;;;;;;;;13.56;100.00;99651.47;5022991;28;19930;-80
2023/10/18 07:38:14;;;;;;;;;;;;;;;13.60;100.00;99652.84;5022878;28;19926;-79
2023/10/18 07:40:42;;;;;;;;;;;;;;;13.59;100.00;99657.31;5024357;28;19944;-80
2023/10/18 07:43:12;;;;;;;;;;;;;;;13.60;100.00;99658.16;5007650;28;19936;-80
2023/10/18 07:45:38;;;;;;;;;;;;;;;13.56;100.00;99651.47;5007200;28;21289;-80
2023/10/18 07:48:05;;;;;;;;;;;;;;;13.57;100.00;99661.09;5023322;28;19964;-80
2023/10/18 07:50:34;;;;;;;;;;;;;;;13.58;100.00;99653.00;5010707;28;20337;-78
2023/10/18 07:53:00;;;;;;;;;;;;;;;13.57;100.00;99658.44;5026545;28;20274;-76
2023/10/18 07:55:27;;;;;;;;;;;;;;;13.53;100.00;99642.88;5007966;28;20011;-77
2023/10/18 07:57:54;;;;;;;;;;;;;;;13.46;100.00;99652.44;5020987;28;20390;-74
2023/10/18 08:00:23;;;;;;;;;;;;;;;13.53;100.00;99658.78;5024231;28;19960;-76
2023/10/18 08:02:51;;;;;;;;;;;;;;;13.47;100.00;99651.47;5022364;28;20281;-76
2023/10/18 08:05:22;;;;;;;;;;;;;;;13.50;100.00;99653.78;5025995;28;19976;-77
2023/10/18 08:07:52;;;;;;;;;;;;;;;13.56;100.00;99648.81;5022374;28;19917;-77
2023/10/18 08:10:21;;;;;;;;;;;;;;;13.58;100.00;99660.09;5022690;28;20230;-76
2023/10/18 08:12:57;;;;;;;;;;;;;;;13.63;100.00;99652.50;5021574;28;20412;-75
2023/10/18 08:15:22;;;;;;;;;;;;;;;13.70;100.00;99642.94;5021810;28;19928;-74
2023/10/18 08:17:50;;;;;;;;;;;;;;;13.78;100.00;99640.31;5027108;28;19922;-75
2023/10/18 08:22:49;;;;;;;;;;;;;;;14.00;100.00;99633.56;5022929;28;20368;-74
2023/10/18 08:25:29;;;;;;;;;;;;;;;14.04;100.00;99634.88;5023851;28;20352;-73
2023/10/18 08:27:55;;;;;;;;;;;;;;;14.11;100.00;99636.72;5025643;28;19925;-76
2023/10/18 08:30:38;;;;;;;;;;;;;;;14.14;100.00;99639.06;5025974;28;19957;-75
2023/10/18 08:33:06;;;;;;;;;;;;;;;14.12;100.00;99642.88;5024647;28;21185;-75
2023/10/18 08:35:32;;;;;;;;;;;;;;;14.16;100.00;99639.72;5022039;28;20045;-74
2023/10/18 08:38:03;;;;;;;;;;;;;;;14.20;100.00;99634.91;5022446;28;20029;-73
2023/10/18 08:43:12;;;;;;;;;;;;;;;14.21;100.00;99636.56;5025758;28;20331;-74
2023/10/18 08:45:47;;;;;;;;;;;;;;;14.17;100.00;99628.13;5022144;28;19924;-75
2023/10/18 08:48:16;;;;;;;;;;;;;;;14.17;100.00;99628.13;5004784;28;19921;-75
2023/10/18 08:50:42;;;;;;;;;;;;;;;14.21;100.00;99632.09;5026471;28;20270;-76
2023/10/18 08:53:08;;;;;;;;;;;;;;;14.18;100.00;99618.34;5024071;28;20369;-75
2023/10/18 08:55:45;;;;;;;;;;;;;;;14.17;100.00;99614.84;5020856;28;20401;-74
2023/10/18 08:58:22;;;;;;;;;;;;;;;14.23;100.00;99624.81;5023277;28;19928;-75
2023/10/18 09:03:23;;;;;;;;;;;;;;;14.27;100.00;99636.75;5022127;28;20304;-75
2023/10/18 09:05:50;;;;;;;;;;;;;;;14.28;100.00;99627.81;5023070;28;20008;-74
2023/10/18 09:08:23;;;;;;;;;;;;;;;14.34;100.00;99621.84;5022205;28;19960;-74
2023/10/18 09:10:54;;;;;;;;;;;;;;;14.48;100.00;99622.22;5022297;28;20274;-74
2023/10/18 09:18:25;;;;;;;;;;;;;;;14.80;100.00;99614.19;5008363;28;19921;-73
2023/10/18 09:20:51;;;;;;;;;;;;;;;14.87;100.00;99620.50;5024398;28;19922;-74
2023/10/18 09:23:20;;;;;;;;;;;;;;;14.90;100.00;99617.53;5028876;28;20277;-74
2023/10/18 09:25:49;;;;;;;;;;;;;;;14.94;100.00;99608.22;5011661;28;19928;-73
2023/10/18 09:28:20;;;;;;;;;;;;;;;14.97;100.00;99609.69;5014134;28;19921;-74
2023/10/18 09:30:46;;;;;;;;;;;;;;;14.97;100.00;99618.50;5027692;28;19959;-74
2023/10/18 09:33:13;;;;;;;;;;;;;;;14.96;100.00;99616.81;5022390;28;19959;-77
2023/10/18 09:35:47;;;;;;;;;;;;;;;15.00;100.00;99618.16;5026948;28;20807;-75
2023/10/18 09:38:13;;;;;;;;;;;;;;;15.06;100.00;99612.19;5024939;28;20293;-74
2023/10/18 09:40:40;;;;;;;;;;;;;;;15.08;100.00;99615.47;5011528;28;19925;-75
2023/10/18 09:43:06;;;;;;;;;;;;;;;15.15;100.00;99621.78;5009067;28;19921;-75
2023/10/18 09:45:33;;;;;;;;;;;;;;;15.18;100.00;99625.09;5027190;28;19924;-75
2023/10/18 09:47:59;;;;;;;;;;;;;;;15.23;100.00;99612.13;5025786;28;19921;-75
2023/10/18 09:50:28;;;;;;;;;;;;;;;15.29;100.00;99608.78;5027336;28;19940;-74
2023/10/18 09:52:59;;;;;;;;;;;;;;;15.30;100.00;99607.78;5025961;28;19923;-73
2023/10/18 09:55:26;;;;;;;;;;;;;;;15.30;100.00;99615.75;5027437;28;20443;-74
2023/10/18 09:58:18;;;;;;;;;;;;;;;15.32;100.00;99611.91;5024986;28;20337;-75
2023/10/18 10:00:42;;;;;;;;;;;;;;;15.35;100.00;99616.91;5023469;28;20289;-75
2023/10/18 10:03:11;;;;;;;;;;;;;;;15.39;100.00;99609.41;5027812;28;20323;-76
2023/10/18 10:05:41;;;;;;;;;;;;;;;15.44;100.00;99610.53;5008763;28;19992;-74
2023/10/18 10:08:07;;;;;;;;;;;;;;;15.47;100.00;99604.88;5027999;28;20381;-74
2023/10/18 10:10:45;;;;;;;;;;;;;;;15.49;100.00;99607.38;5004617;28;20044;-76
2023/10/18 10:13:12;;;;;;;;;;;;;;;15.53;100.00;99603.41;5027855;28;20704;-76
2023/10/18 10:15:38;;;;;;;;;;;;;;;15.55;100.00;99606.72;5022249;28;20569;-77
2023/10/18 10:18:06;;;;;;;;;;;;;;;15.54;100.00;99602.41;5029411;28;19925;-75
2023/10/18 10:20:33;;;;;;;;;;;;;;;15.56;100.00;99603.03;5024543;28;19961;-74
2023/10/18 10:23:04;;;;;;;;;;;;;;;15.53;100.00;99598.91;5026539;28;19968;-74
2023/10/18 10:25:32;;;;;;;;;;;;;;;15.56;100.00;99597.72;5028329;28;20023;-76
2023/10/18 10:28:14;;;;;;;;;;;;;;;15.61;100.00;99599.88;5025712;28;19928;-74
2023/10/18 10:30:43;;;;;;;;;;;;;;;15.63;100.00;99592.53;5024355;28;19925;-75
2023/10/18 10:33:12;;;;;;;;;;;;;;;15.63;100.00;99595.19;5023653;28;20388;-76
2023/10/18 10:35:44;;;;;;;;;;;;;;;15.57;100.00;99588.75;5025461;28;20343;-75
2023/10/18 10:38:13;;;;;;;;;;;;;;;15.60;100.00;99588.41;5023258;28;19936;-75
2023/10/18 10:40:44;;;;;;;;;;;;;;;15.62;100.00;99581.06;5027282;28;20360;-75
2023/10/18 10:43:11;;;;;;;;;;;;;;;15.60;100.00;99585.75;5023040;28;19925;-75
2023/10/18 10:45:53;;;;;;;;;;;;;;;15.58;100.00;99593.06;5024915;28;19971;-75
2023/10/18 10:48:30;;;;;;;;;;;;;;;15.61;100.00;99590.03;5024075;28;19983;-75
2023/10/18 10:51:20;;;;;;;;;;;;;;;15.66;100.00;99585.06;5024971;28;19921;-75
2023/10/18 10:53:58;;;;;;;;;;;;;;;15.67;100.00;99581.38;5022932;28;20340;-75
2023/10/18 10:56:33;;;;;;;;;;;;;;;15.69;100.00;99582.03;5023996;28;20336;-75
2023/10/18 11:01:57;;;;;;;;;;;;;;;15.68;100.00;99572.38;5025015;28;20347;-75
2023/10/18 11:04:25;;;;;;;;;;;;;;;15.67;100.00;99565.41;5024014;28;19922;-75
2023/10/18 11:06:56;;;;;;;;;;;;;;;15.70;100.00;99564.25;5026245;28;19954;-75
2023/10/18 11:09:34;;;;;;;;;;;;;;;15.68;100.00;99561.75;5020168;28;19934;-75
2023/10/18 11:12:10;;;;;;;;;;;;;;;15.66;100.00;99566.44;5024452;28;19925;-74
2023/10/18 11:14:36;;;;;;;;;;;;;;;15.65;100.00;99554.13;5025661;28;20266;-75
2023/10/18 11:17:48;;;;;;;;;;;;;;;15.69;100.00;99555.44;5022428;28;19932;-76
2023/10/18 11:19:54;;;;;;;;;;;;;;;15.73;100.00;99548.75;5012202;28;20278;-75
2023/10/18 11:22:23;;;;;;;;;;;;;;;15.74;100.00;99538.94;5005686;28;19924;-75
2023/10/18 11:24:53;;;;;;;;;;;;;;;15.75;100.00;99537.94;5025567;28;20012;-76
2023/10/18 11:27:25;;;;;;;;;;;;;;;15.73;100.00;99532.78;5020530;28;20336;-76
2023/10/18 11:29:55;;;;;;;;;;;;;;;15.75;100.00;99522.81;5024594;28;20277;-73
2023/10/18 11:32:28;;;;;;;;;;;;;;;15.77;100.00;99523.47;5024809;28;20129;-74
2023/10/18 11:35:09;;;;;;;;;;;;;;;15.73;100.00;99514.16;5021724;28;20304;-74
2023/10/18 11:37:38;;;;;;;;;;;;;;;15.73;100.00;99516.81;5022124;28;20016;-74
2023/10/18 11:40:14;;;;;;;;;;;;;;;15.75;100.00;99522.81;5006535;28;19925;-73
2023/10/18 11:42:53;;;;;;;;;;;;;;;15.80;100.00;99512.44;5022630;28;19988;-74
2023/10/18 11:45:20;;;;;;;;;;;;;;;15.85;100.00;99517.22;5022821;28;20512;-74
2023/10/18 11:47:50;;;;;;;;;;;;;;;15.88;100.00;99517.72;5022234;28;19983;-74
2023/10/18 11:50:16;;;;;;;;;;;;;;;15.95;100.00;99513.34;5011075;28;20340;-73
2023/10/18 11:52:41;;;;;;;;;;;;;;;15.99;100.00;99513.81;5022839;28;19921;-73
2023/10/18 11:55:10;;;;;;;;;;;;;;;15.93;100.00;99509.22;5025839;28;19925;-73
2023/10/18 11:57:39;;;;;;;;;;;;;;;15.95;100.00;99513.34;5022045;28;20337;-74
2023/10/18 12:00:28;;;;;;;;;;;;;;;15.93;100.00;99510.03;5025636;28;20990;-73
2023/10/18 12:02:55;;;;;;;;;;;;;;;15.92;100.00;99497.72;5022926;28;19921;-74
2023/10/18 12:05:23;;;;;;;;;;;;;;;15.92;100.00;99497.72;5021871;28;20358;-78
2023/10/18 12:07:49;;;;;;;;;;;;;;;15.97;100.00;99495.34;5024411;28;19929;-73
2023/10/18 12:10:25;;;;;;;;;;;;;;;15.94;100.00;99493.06;5025859;28;20255;-73
2023/10/18 12:12:55;;;;;;;;;;;;;;;15.91;100.00;99482.75;5020292;28;19960;-73
2023/10/18 12:15:23;;;;;;;;;;;;;;;15.92;100.00;99487.09;5025150;28;19928;-73
2023/10/18 12:17:49;;;;;;;;;;;;;;;15.97;100.00;99479.38;5022931;28;19921;-74
2023/10/18 12:20:15;;;;;;;;;;;;;;;16.02;100.00;99486.03;5022108;28;20300;-73
2023/10/18 12:22:42;;;;;;;;;;;;;;;16.02;100.00;99481.53;5019984;28;19925;-75
2023/10/18 12:25:08;;;;;;;;;;;;;;;16.05;100.00;99469.69;5021323;28;20030;-76
2023/10/18 12:27:34;;;;;;;;;;;;;;;16.02;100.00;99465.56;5023426;28;19969;-75
2023/10/18 12:32:51;;;;;;;;;;;;;;;16.16;100.00;99456.78;5006618;28;20040;-77
2023/10/18 12:35:19;;;;;;;;;;;;;;;16.16;100.00;99461.25;5024820;28;20390;-76
2023/10/18 12:37:45;;;;;;;;;;;;;;;16.11;100.00;99463.66;5020070;28;19929;-76
2023/10/18 12:40:31;;;;;;;;;;;;;;;16.11;100.00;99458.31;5025420;28;19922;-74
2023/10/18 12:43:05;;;;;;;;;;;;;;;16.10;100.00;99459.31;5022346;28;20335;-75
2023/10/18 12:45:42;;;;;;;;;;;;;;;16.07;100.00;99451.72;5025930;28;19961;-76
2023/10/18 12:48:10;;;;;;;;;;;;;;;16.09;100.00;99439.03;5021852;28;20325;-75
2023/10/18 12:50:36;;;;;;;;;;;;;;;16.11;100.00;99442.34;5021416;28;20274;-73
2023/10/18 12:54:03;;;;;;;;;;;;;;;16.09;100.00;99444.34;5021716;28;19932;-75
2023/10/18 12:58:47;;;;;;;;;;;;;;;15.95;100.00;99446.81;5028030;28;19932;-76
2023/10/18 13:01:16;;;;;;;;;;;;;;;15.94;100.00;99447.81;5025338;28;20086;-75
2023/10/18 13:03:44;;;;;;;;;;;;;;;15.91;100.00;99448.16;5026090;28;19944;-75
2023/10/18 13:06:16;;;;;;;;;;;;;;;15.92;100.00;99444.50;5028423;28;19921;-74
2023/10/18 13:08:55;;;;;;;;;;;;;;;15.83;100.00;99434.97;5024900;28;19922;-74
2023/10/18 13:14:13;;;;;;;;;;;;;;;15.81;100.00;99426.31;5008671;28;19925;-75
2023/10/18 13:16:39;;;;;;;;;;;;;;;15.80;100.00;99423.81;5025922;28;20218;-74
2023/10/18 13:19:06;;;;;;;;;;;;;;;15.80;100.00;99426.47;5027171;28;19952;-75
2023/10/18 13:21:32;;;;;;;;;;;;;;;15.82;100.00;99420.00;5026975;28;20381;-74
2023/10/18 13:23:59;;;;;;;;;;;;;;;15.79;100.00;99417.66;5026026;28;19921;-76
2023/10/18 13:26:31;;;;;;;;;;;;;;;15.78;100.00;99416.03;5023463;28;19922;-75
2023/10/18 13:29:03;;;;;;;;;;;;;;;15.77;100.00;99414.38;5027453;28;20047;-75
2023/10/18 13:31:32;;;;;;;;;;;;;;;15.80;100.00;99416.66;5009018;28;19928;-75
2023/10/18 13:33:58;;;;;;;;;;;;;;;15.86;100.00;99407.97;5025543;28;20012;-75
2023/10/18 13:36:23;;;;;;;;;;;;;;;15.89;100.00;99412.94;5023048;28;20003;-73
2023/10/18 13:38:53;;;;;;;;;;;;;;;15.88;100.00;99411.28;5026551;28;19971;-74
2023/10/18 13:41:19;;;;;;;;;;;;;;;15.82;100.00;99404.03;5024934;28;20023;-74
2023/10/18 13:43:45;;;;;;;;;;;;;;;15.86;100.00;99397.31;5027765;28;19924;-74